sensor_id;sensor_type;location;lat;lon;timestamp;temperature;humidity
66343;DHT22;53144;51.524;5.080;2022-11-20T00:04:46;-0.59;89.26
66343;DHT22;53144;51.524;5.080;2022-11-20T00:07:21;-0.59;89.45
66343;DHT22;53144;51.524;5.080;2022-11-20T02:07:15;-0.32;88.94
66343;DHT22;53144;51.524;5.080;2022-11-20T02:09:55;-0.26;89.23
66343;DHT22;53144;51.524;5.080;2022-11-20T02:12:20;-0.19;88.95
66343;DHT22;53144;51.524;5.080;2022-11-20T02:18:47;-0.13;87.89
66343;DHT22;53144;51.524;5.080;2022-11-20T02:24:19;-0.12;87.59
66343;DHT22;53144;51.524;5.080;2022-11-20T02:30:22;-0.12;86.60
66343;DHT22;53144;51.524;5.080;2022-11-20T02:32:53;-0.05;85.78
66343;DHT22;53144;51.524;5.080;2022-11-20T02:35:52;0.16;86.47
66343;DHT22;53144;51.524;5.080;2022-11-20T02:38:46;0.11;86.33
66343;DHT22;53144;51.524;5.080;2022-11-20T02:41:17;-0.03;86.64
66343;DHT22;53144;51.524;5.080;2022-11-20T02:43:53;0.01;86.22
66343;DHT22;53144;51.524;5.080;2022-11-20T02:46:23;-0.12;86.32
66343;DHT22;53144;51.524;5.080;2022-11-20T02:49:18;-0.16;86.58
66343;DHT22;53144;51.524;5.080;2022-11-20T02:51:49;-0.15;85.66
66343;DHT22;53144;51.524;5.080;2022-11-20T02:54:18;0.01;87.57
66343;DHT22;53144;51.524;5.080;2022-11-20T03:00:17;0.25;87.05
66343;DHT22;53144;51.524;5.080;2022-11-20T03:03:13;0.25;86.08
66343;DHT22;53144;51.524;5.080;2022-11-20T03:05:54;0.15;87.25
66343;DHT22;53144;51.524;5.080;2022-11-20T03:08:50;0.30;88.22
66343;DHT22;53144;51.524;5.080;2022-11-20T03:11:45;0.32;89.25
66343;DHT22;53144;51.524;5.080;2022-11-20T03:18:14;0.42;87.86
66343;DHT22;53144;51.524;5.080;2022-11-20T03:20:49;0.43;87.05
66343;DHT22;53144;51.524;5.080;2022-11-20T03:23:51;0.40;87.39
66343;DHT22;53144;51.524;5.080;2022-11-20T03:26:53;0.45;88.31
66343;DHT22;53144;51.524;5.080;2022-11-20T03:30:09;0.32;88.44
66343;DHT22;53144;51.524;5.080;2022-11-20T03:32:54;0.23;88.96
66343;DHT22;53144;51.524;5.080;2022-11-20T03:35:25;0.19;89.60
66343;DHT22;53144;51.524;5.080;2022-11-20T03:38:42;0.32;88.46
66343;DHT22;53144;51.524;5.080;2022-11-20T04:20:17;0.36;89.55
66343;DHT22;53144;51.524;5.080;2022-11-20T04:29:48;0.43;88.63
66343;DHT22;53144;51.524;5.080;2022-11-20T04:32:14;0.50;88.78
66343;DHT22;53144;51.524;5.080;2022-11-20T04:34:46;0.53;89.14
66343;DHT22;53144;51.524;5.080;2022-11-20T04:37:24;0.54;90.39
66343;DHT22;53144;51.524;5.080;2022-11-20T04:40:12;0.63;90.03
66343;DHT22;53144;51.524;5.080;2022-11-20T04:42:49;0.57;89.94
66343;DHT22;53144;51.524;5.080;2022-11-20T04:45:46;0.50;89.71
66343;DHT22;53144;51.524;5.080;2022-11-20T04:48:21;0.61;89.84
66343;DHT22;53144;51.524;5.080;2022-11-20T04:50:50;0.46;90.87
66343;DHT22;53144;51.524;5.080;2022-11-20T04:53:20;0.52;91.41
66343;DHT22;53144;51.524;5.080;2022-11-20T04:55:49;0.52;91.12
66343;DHT22;53144;51.524;5.080;2022-11-20T05:02:15;0.52;90.15
66343;DHT22;53144;51.524;5.080;2022-11-20T05:04:45;0.50;90.58
66343;DHT22;53144;51.524;5.080;2022-11-20T05:07:11;0.39;89.63
66343;DHT22;53144;51.524;5.080;2022-11-20T05:09:56;0.38;90.14
66343;DHT22;53144;51.524;5.080;2022-11-20T05:13:11;0.48;90.88
66343;DHT22;53144;51.524;5.080;2022-11-20T05:15:41;0.45;90.68
66343;DHT22;53144;51.524;5.080;2022-11-20T05:18:17;0.43;89.41
66343;DHT22;53144;51.524;5.080;2022-11-20T05:20:56;0.38;89.64
66343;DHT22;53144;51.524;5.080;2022-11-20T05:23:52;0.39;89.87
66343;DHT22;53144;51.524;5.080;2022-11-20T05:26:20;0.52;90.72
66343;DHT22;53144;51.524;5.080;2022-11-20T05:28:50;0.40;90.13
66343;DHT22;53144;51.524;5.080;2022-11-20T05:31:18;0.39;90.53
66343;DHT22;53144;51.524;5.080;2022-11-20T05:33:52;0.36;90.38
66343;DHT22;53144;51.524;5.080;2022-11-20T05:36:40;0.35;91.10
66343;DHT22;53144;51.524;5.080;2022-11-20T05:39:17;0.29;91.22
66343;DHT22;53144;51.524;5.080;2022-11-20T05:41:42;0.26;90.87
66343;DHT22;53144;51.524;5.080;2022-11-20T05:44:12;0.19;90.71
66343;DHT22;53144;51.524;5.080;2022-11-20T05:46:50;0.15;90.66
66343;DHT22;53144;51.524;5.080;2022-11-20T05:49:15;0.18;91.83
66343;DHT22;53144;51.524;5.080;2022-11-20T05:51:41;0.18;90.76
66343;DHT22;53144;51.524;5.080;2022-11-20T05:54:15;0.19;91.48
66343;DHT22;53144;51.524;5.080;2022-11-20T05:59:44;0.22;91.79
66343;DHT22;53144;51.524;5.080;2022-11-20T06:02:13;0.16;92.01
66343;DHT22;53144;51.524;5.080;2022-11-20T06:04:41;0.19;91.91
66343;DHT22;53144;51.524;5.080;2022-11-20T06:07:13;0.28;91.72
66343;DHT22;53144;51.524;5.080;2022-11-20T06:09:43;0.30;92.22
66343;DHT22;53144;51.524;5.080;2022-11-20T06:12:15;0.20;92.20
66343;DHT22;53144;51.524;5.080;2022-11-20T06:14:45;0.46;91.88
66343;DHT22;53144;51.524;5.080;2022-11-20T06:17:21;0.49;91.08
66343;DHT22;53144;51.524;5.080;2022-11-20T06:19:52;0.50;90.83
66343;DHT22;53144;51.524;5.080;2022-11-20T06:22:21;0.46;91.49
66343;DHT22;53144;51.524;5.080;2022-11-20T06:25:26;0.42;92.23
66343;DHT22;53144;51.524;5.080;2022-11-20T06:28:14;0.43;92.43
66343;DHT22;53144;51.524;5.080;2022-11-20T06:30:47;0.39;91.81
66343;DHT22;53144;51.524;5.080;2022-11-20T06:33:13;0.45;91.84
66343;DHT22;53144;51.524;5.080;2022-11-20T06:36:08;0.35;92.91
66343;DHT22;53144;51.524;5.080;2022-11-20T06:38:46;0.40;92.50
66343;DHT22;53144;51.524;5.080;2022-11-20T06:41:26;0.33;93.22
66343;DHT22;53144;51.524;5.080;2022-11-20T06:43:54;0.38;92.51
66343;DHT22;53144;51.524;5.080;2022-11-20T06:46:20;0.35;93.14
66343;DHT22;53144;51.524;5.080;2022-11-20T06:48:47;0.35;93.24
66343;DHT22;53144;51.524;5.080;2022-11-20T06:51:16;0.38;92.98
66343;DHT22;53144;51.524;5.080;2022-11-20T06:53:48;0.33;92.02
66343;DHT22;53144;51.524;5.080;2022-11-20T06:56:16;0.25;92.50
66343;DHT22;53144;51.524;5.080;2022-11-20T06:58:47;0.19;92.59
66343;DHT22;53144;51.524;5.080;2022-11-20T07:01:14;0.02;93.73
66343;DHT22;53144;51.524;5.080;2022-11-20T07:03:49;-0.03;93.55
66343;DHT22;53144;51.524;5.080;2022-11-20T07:06:20;-0.09;94.11
66343;DHT22;53144;51.524;5.080;2022-11-20T07:08:48;-0.22;94.29
66343;DHT22;53144;51.524;5.080;2022-11-20T07:11:15;-0.30;94.38
66343;DHT22;53144;51.524;5.080;2022-11-20T07:13:46;-0.26;94.95
66343;DHT22;53144;51.524;5.080;2022-11-20T07:16:14;-0.20;94.64
66343;DHT22;53144;51.524;5.080;2022-11-20T07:18:50;-0.25;94.43
66343;DHT22;53144;51.524;5.080;2022-11-20T07:21:24;-0.30;94.74
66343;DHT22;53144;51.524;5.080;2022-11-20T07:23:52;-0.15;94.21
66343;DHT22;53144;51.524;5.080;2022-11-20T07:26:19;-0.23;94.59
66343;DHT22;53144;51.524;5.080;2022-11-20T07:28:45;-0.18;94.69
66343;DHT22;53144;51.524;5.080;2022-11-20T07:31:13;-0.12;94.71
66343;DHT22;53144;51.524;5.080;2022-11-20T07:34:15;-0.09;94.83
66343;DHT22;53144;51.524;5.080;2022-11-20T07:36:43;0.02;94.79
66343;DHT22;53144;51.524;5.080;2022-11-20T07:39:15;0.06;94.28
66343;DHT22;53144;51.524;5.080;2022-11-20T07:41:49;0.20;94.32
66343;DHT22;53144;51.524;5.080;2022-11-20T07:44:22;0.20;94.11
66343;DHT22;53144;51.524;5.080;2022-11-20T07:46:47;0.25;94.15
66343;DHT22;53144;51.524;5.080;2022-11-20T07:49:13;0.32;93.87
66343;DHT22;53144;51.524;5.080;2022-11-20T07:51:51;0.30;93.77
66343;DHT22;53144;51.524;5.080;2022-11-20T07:54:18;0.33;93.63
66343;DHT22;53144;51.524;5.080;2022-11-20T07:56:50;0.33;94.25
66343;DHT22;53144;51.524;5.080;2022-11-20T07:59:23;0.42;93.66
66343;DHT22;53144;51.524;5.080;2022-11-20T08:01:49;0.53;92.95
66343;DHT22;53144;51.524;5.080;2022-11-20T08:04:16;0.48;93.33
66343;DHT22;53144;51.524;5.080;2022-11-20T08:06:47;0.54;93.36
66343;DHT22;53144;51.524;5.080;2022-11-20T08:09:23;0.56;92.83
66343;DHT22;53144;51.524;5.080;2022-11-20T08:11:51;0.63;93.49
66343;DHT22;53144;51.524;5.080;2022-11-20T08:14:39;0.73;93.01
66343;DHT22;53144;51.524;5.080;2022-11-20T08:17:23;0.63;93.22
66343;DHT22;53144;51.524;5.080;2022-11-20T08:19:51;0.69;93.89
66343;DHT22;53144;51.524;5.080;2022-11-20T08:22:20;0.67;93.83
66343;DHT22;53144;51.524;5.080;2022-11-20T08:24:52;0.80;93.96
66343;DHT22;53144;51.524;5.080;2022-11-20T08:27:20;0.85;93.26
66343;DHT22;53144;51.524;5.080;2022-11-20T08:29:45;0.88;93.98
66343;DHT22;53144;51.524;5.080;2022-11-20T08:32:15;0.98;93.69
66343;DHT22;53144;51.524;5.080;2022-11-20T08:38:18;1.15;93.51
66343;DHT22;53144;51.524;5.080;2022-11-20T08:40:51;1.38;93.03
66343;DHT22;53144;51.524;5.080;2022-11-20T08:43:44;1.35;93.39
66343;DHT22;53144;51.524;5.080;2022-11-20T08:46:54;1.35;92.91
66343;DHT22;53144;51.524;5.080;2022-11-20T08:49:43;1.49;93.26
66343;DHT22;53144;51.524;5.080;2022-11-20T08:52:18;1.62;93.15
66343;DHT22;53144;51.524;5.080;2022-11-20T08:54:50;1.59;92.71
66343;DHT22;53144;51.524;5.080;2022-11-20T09:00:47;1.76;92.93
66343;DHT22;53144;51.524;5.080;2022-11-20T09:06:49;1.97;92.38
66343;DHT22;53144;51.524;5.080;2022-11-20T09:09:24;1.98;92.28
66343;DHT22;53144;51.524;5.080;2022-11-20T09:11:57;2.03;92.51
66343;DHT22;53144;51.524;5.080;2022-11-20T09:14:44;2.07;93.19
66343;DHT22;53144;51.524;5.080;2022-11-20T09:21:14;2.25;92.89
66343;DHT22;53144;51.524;5.080;2022-11-20T09:23:45;2.27;92.38
66343;DHT22;53144;51.524;5.080;2022-11-20T09:26:20;2.41;92.41
66343;DHT22;53144;51.524;5.080;2022-11-20T09:28:48;2.29;92.80
66343;DHT22;53144;51.524;5.080;2022-11-20T09:31:42;2.45;92.56
66343;DHT22;53144;51.524;5.080;2022-11-20T09:34:16;2.46;92.67
66343;DHT22;53144;51.524;5.080;2022-11-20T09:36:42;2.48;92.41
66343;DHT22;53144;51.524;5.080;2022-11-20T09:39:12;2.55;92.64
66343;DHT22;53144;51.524;5.080;2022-11-20T09:41:58;2.60;92.53
66343;DHT22;53144;51.524;5.080;2022-11-20T09:53:20;2.85;92.11
66343;DHT22;53144;51.524;5.080;2022-11-20T09:55:48;2.93;92.64
66343;DHT22;53144;51.524;5.080;2022-11-20T09:58:27;3.00;92.99
66343;DHT22;53144;51.524;5.080;2022-11-20T10:01:21;3.16;91.91
66343;DHT22;53144;51.524;5.080;2022-11-20T10:09:36;3.23;92.18
66343;DHT22;53144;51.524;5.080;2022-11-20T10:27:21;3.66;92.22
66343;DHT22;53144;51.524;5.080;2022-11-20T10:30:15;3.72;91.31
66343;DHT22;53144;51.524;5.080;2022-11-20T10:32:56;3.71;91.83
66343;DHT22;53144;51.524;5.080;2022-11-20T10:35:38;3.71;92.48
66343;DHT22;53144;51.524;5.080;2022-11-20T10:38:32;3.89;93.19
66343;DHT22;53144;51.524;5.080;2022-11-20T10:41:16;3.83;92.87
66343;DHT22;53144;51.524;5.080;2022-11-20T10:43:58;3.90;92.51
66343;DHT22;53144;51.524;5.080;2022-11-20T10:46:43;3.90;92.33
66343;DHT22;53144;51.524;5.080;2022-11-20T10:49:14;3.99;91.89
66343;DHT22;53144;51.524;5.080;2022-11-20T10:54:53;4.05;92.31
66343;DHT22;53144;51.524;5.080;2022-11-20T11:00:14;4.13;92.43
66343;DHT22;53144;51.524;5.080;2022-11-20T11:02:53;4.16;92.39
66343;DHT22;53144;51.524;5.080;2022-11-20T11:07:46;4.18;92.03
66343;DHT22;53144;51.524;5.080;2022-11-20T11:12:43;4.23;93.04
66343;DHT22;53144;51.524;5.080;2022-11-20T11:15:55;4.37;92.34
66343;DHT22;53144;51.524;5.080;2022-11-20T11:18:44;4.47;92.10
66343;DHT22;53144;51.524;5.080;2022-11-20T11:21:21;4.32;92.45
66343;DHT22;53144;51.524;5.080;2022-11-20T11:23:58;4.33;92.39
66343;DHT22;53144;51.524;5.080;2022-11-20T11:26:24;4.32;92.41
66343;DHT22;53144;51.524;5.080;2022-11-20T11:29:00;4.34;93.07
66343;DHT22;53144;51.524;5.080;2022-11-20T11:34:43;4.27;93.80
66343;DHT22;53144;51.524;5.080;2022-11-20T11:37:18;4.24;94.23
66343;DHT22;53144;51.524;5.080;2022-11-20T11:39:53;4.23;94.71
66343;DHT22;53144;51.524;5.080;2022-11-20T11:42:18;4.36;94.77
66343;DHT22;53144;51.524;5.080;2022-11-20T11:44:56;4.21;95.08
66343;DHT22;53144;51.524;5.080;2022-11-20T11:50:48;4.32;95.28
66343;DHT22;53144;51.524;5.080;2022-11-20T11:53:17;4.34;95.36
66343;DHT22;53144;51.524;5.080;2022-11-20T11:55:46;4.29;94.19
66343;DHT22;53144;51.524;5.080;2022-11-20T12:00:58;4.33;95.62
66343;DHT22;53144;51.524;5.080;2022-11-20T12:03:36;4.41;95.77
66343;DHT22;53144;51.524;5.080;2022-11-20T12:06:14;4.47;95.82
66343;DHT22;53144;51.524;5.080;2022-11-20T12:11:58;4.71;95.71
66343;DHT22;53144;51.524;5.080;2022-11-20T12:14:46;4.75;95.70
66343;DHT22;53144;51.524;5.080;2022-11-20T12:17:15;4.89;95.11
66343;DHT22;53144;51.524;5.080;2022-11-20T12:19:41;4.93;95.62
66343;DHT22;53144;51.524;5.080;2022-11-20T12:30:27;5.11;94.84
66343;DHT22;53144;51.524;5.080;2022-11-20T12:36:08;5.13;94.74
66343;DHT22;53144;51.524;5.080;2022-11-20T12:38:57;5.30;94.88
66343;DHT22;53144;51.524;5.080;2022-11-20T12:59:26;5.43;94.50
66343;DHT22;53144;51.524;5.080;2022-11-20T13:08:35;5.39;95.34
66343;DHT22;53144;51.524;5.080;2022-11-20T13:11:23;5.50;94.79
66343;DHT22;53144;51.524;5.080;2022-11-20T13:16:46;5.48;95.21
66343;DHT22;53144;51.524;5.080;2022-11-20T14:00:20;5.79;95.37
66343;DHT22;53144;51.524;5.080;2022-11-20T14:06:20;5.63;96.05
66343;DHT22;53144;51.524;5.080;2022-11-20T14:12:20;5.73;96.16
66343;DHT22;53144;51.524;5.080;2022-11-20T14:15:00;5.70;96.49
66343;DHT22;53144;51.524;5.080;2022-11-20T14:20:26;5.63;96.52
66343;DHT22;53144;51.524;5.080;2022-11-20T14:23:28;5.65;96.60
66343;DHT22;53144;51.524;5.080;2022-11-20T14:26:00;5.60;96.99
66343;DHT22;53144;51.524;5.080;2022-11-20T14:29:04;5.61;96.98
66343;DHT22;53144;51.524;5.080;2022-11-20T14:31:32;5.58;97.11
66343;DHT22;53144;51.524;5.080;2022-11-20T14:33:58;5.55;97.30
66343;DHT22;53144;51.524;5.080;2022-11-20T14:36:25;5.54;97.51
66343;DHT22;53144;51.524;5.080;2022-11-20T14:38:53;5.51;97.55
66343;DHT22;53144;51.524;5.080;2022-11-20T14:41:31;5.54;97.65
66343;DHT22;53144;51.524;5.080;2022-11-20T14:44:09;5.55;97.68
66343;DHT22;53144;51.524;5.080;2022-11-20T14:46:48;5.58;97.96
66343;DHT22;53144;51.524;5.080;2022-11-20T14:49:16;5.61;98.05
66343;DHT22;53144;51.524;5.080;2022-11-20T14:55:32;5.65;98.07
66343;DHT22;53144;51.524;5.080;2022-11-20T14:58:30;5.65;98.52
66343;DHT22;53144;51.524;5.080;2022-11-20T15:01:55;5.63;98.60
66343;DHT22;53144;51.524;5.080;2022-11-20T15:04:21;5.79;98.71
66343;DHT22;53144;51.524;5.080;2022-11-20T15:06:51;5.87;98.37
66343;DHT22;53144;51.524;5.080;2022-11-20T15:09:40;5.84;98.48
66343;DHT22;53144;51.524;5.080;2022-11-20T15:12:16;5.87;98.57
66343;DHT22;53144;51.524;5.080;2022-11-20T15:14:42;5.90;98.49
66343;DHT22;53144;51.524;5.080;2022-11-20T15:17:15;5.91;98.59
66343;DHT22;53144;51.524;5.080;2022-11-20T15:19:41;5.88;98.69
66343;DHT22;53144;51.524;5.080;2022-11-20T15:22:15;5.98;98.91
66343;DHT22;53144;51.524;5.080;2022-11-20T15:24:44;5.94;98.87
66343;DHT22;53144;51.524;5.080;2022-11-20T15:27:19;5.95;99.11
66343;DHT22;53144;51.524;5.080;2022-11-20T15:29:45;6.01;99.20
66343;DHT22;53144;51.524;5.080;2022-11-20T15:32:11;5.98;99.20
66343;DHT22;53144;51.524;5.080;2022-11-20T15:34:36;6.08;99.33
66343;DHT22;53144;51.524;5.080;2022-11-20T15:37:02;6.08;99.20
66343;DHT22;53144;51.524;5.080;2022-11-20T15:39:37;6.16;99.25
66343;DHT22;53144;51.524;5.080;2022-11-20T15:42:11;6.15;99.28
66343;DHT22;53144;51.524;5.080;2022-11-20T15:44:39;6.13;99.27
66343;DHT22;53144;51.524;5.080;2022-11-20T15:47:04;6.18;99.43
66343;DHT22;53144;51.524;5.080;2022-11-20T15:49:33;6.18;99.44
66343;DHT22;53144;51.524;5.080;2022-11-20T15:51:58;6.15;99.59
66343;DHT22;53144;51.524;5.080;2022-11-20T15:54:27;6.19;99.68
66343;DHT22;53144;51.524;5.080;2022-11-20T15:56:53;6.23;99.65
66343;DHT22;53144;51.524;5.080;2022-11-20T15:59:18;6.29;99.61
66343;DHT22;53144;51.524;5.080;2022-11-20T16:01:44;6.28;99.66
66343;DHT22;53144;51.524;5.080;2022-11-20T16:04:11;6.32;99.71
66343;DHT22;53144;51.524;5.080;2022-11-20T16:06:39;6.37;99.83
66343;DHT22;53144;51.524;5.080;2022-11-20T16:09:05;6.36;99.82
66343;DHT22;53144;51.524;5.080;2022-11-20T16:11:31;6.39;99.95
66343;DHT22;53144;51.524;5.080;2022-11-20T16:13:57;6.40;99.96
66343;DHT22;53144;51.524;5.080;2022-11-20T16:16:41;6.47;99.99
66343;DHT22;53144;51.524;5.080;2022-11-20T16:19:14;6.50;99.99
66343;DHT22;53144;51.524;5.080;2022-11-20T16:21:43;6.60;99.99
66343;DHT22;53144;51.524;5.080;2022-11-20T16:24:10;6.66;99.90
66343;DHT22;53144;51.524;5.080;2022-11-20T16:26:45;6.60;99.94
66343;DHT22;53144;51.524;5.080;2022-11-20T16:29:19;6.67;99.87
66343;DHT22;53144;51.524;5.080;2022-11-20T16:31:48;6.76;99.91
66343;DHT22;53144;51.524;5.080;2022-11-20T16:34:16;6.77;99.94
66343;DHT22;53144;51.524;5.080;2022-11-20T16:36:54;6.81;99.81
66343;DHT22;53144;51.524;5.080;2022-11-20T16:39:19;6.84;99.77
66343;DHT22;53144;51.524;5.080;2022-11-20T16:41:53;6.83;99.81
66343;DHT22;53144;51.524;5.080;2022-11-20T16:44:22;6.92;99.76
66343;DHT22;53144;51.524;5.080;2022-11-20T16:46:47;6.94;99.77
66343;DHT22;53144;51.524;5.080;2022-11-20T16:49:15;7.00;99.77
66343;DHT22;53144;51.524;5.080;2022-11-20T16:51:41;6.97;99.83
66343;DHT22;53144;51.524;5.080;2022-11-20T16:54:08;7.07;99.90
66343;DHT22;53144;51.524;5.080;2022-11-20T16:56:37;7.11;99.80
66343;DHT22;53144;51.524;5.080;2022-11-20T16:59:09;7.15;99.79
66343;DHT22;53144;51.524;5.080;2022-11-20T17:01:34;7.16;99.84
66343;DHT22;53144;51.524;5.080;2022-11-20T17:04:05;7.18;99.80
66343;DHT22;53144;51.524;5.080;2022-11-20T17:06:37;7.19;99.84
66343;DHT22;53144;51.524;5.080;2022-11-20T17:09:11;7.25;99.88
66343;DHT22;53144;51.524;5.080;2022-11-20T17:11:44;7.38;99.65
66343;DHT22;53144;51.524;5.080;2022-11-20T17:14:10;7.41;99.41
66343;DHT22;53144;51.524;5.080;2022-11-20T17:16:36;7.52;99.26
66343;DHT22;53144;51.524;5.080;2022-11-20T17:19:04;7.59;98.83
66343;DHT22;53144;51.524;5.080;2022-11-20T17:21:36;7.66;98.39
66343;DHT22;53144;51.524;5.080;2022-11-20T17:24:05;7.74;97.85
66343;DHT22;53144;51.524;5.080;2022-11-20T17:26:49;7.89;96.81
66343;DHT22;53144;51.524;5.080;2022-11-20T17:29:18;7.93;96.35
66343;DHT22;53144;51.524;5.080;2022-11-20T17:31:48;7.89;96.91
66343;DHT22;53144;51.524;5.080;2022-11-20T17:34:21;7.90;96.92
66343;DHT22;53144;51.524;5.080;2022-11-20T17:36:49;7.86;96.94
66343;DHT22;53144;51.524;5.080;2022-11-20T17:39:39;7.86;96.71
66343;DHT22;53144;51.524;5.080;2022-11-20T17:42:09;7.83;96.94
66343;DHT22;53144;51.524;5.080;2022-11-20T17:45:20;7.83;96.57
66343;DHT22;53144;51.524;5.080;2022-11-20T17:47:48;7.81;96.34
66343;DHT22;53144;51.524;5.080;2022-11-20T17:50:23;7.86;96.22
66343;DHT22;53144;51.524;5.080;2022-11-20T17:52:48;7.80;96.29
66343;DHT22;53144;51.524;5.080;2022-11-20T17:55:14;7.79;96.57
66343;DHT22;53144;51.524;5.080;2022-11-20T17:57:39;7.74;96.47
66343;DHT22;53144;51.524;5.080;2022-11-20T18:00:17;7.76;96.36
66343;DHT22;53144;51.524;5.080;2022-11-20T18:02:50;7.69;96.71
66343;DHT22;53144;51.524;5.080;2022-11-20T18:05:15;7.69;96.57
66343;DHT22;53144;51.524;5.080;2022-11-20T18:07:41;7.67;96.40
66343;DHT22;53144;51.524;5.080;2022-11-20T18:10:07;7.67;96.47
66343;DHT22;53144;51.524;5.080;2022-11-20T18:12:33;7.60;96.69
66343;DHT22;53144;51.524;5.080;2022-11-20T18:14:58;7.63;96.33
66343;DHT22;53144;51.524;5.080;2022-11-20T18:17:24;7.60;96.33
66343;DHT22;53144;51.524;5.080;2022-11-20T18:19:49;7.55;96.96
66343;DHT22;53144;51.524;5.080;2022-11-20T18:22:18;7.52;97.15
66343;DHT22;53144;51.524;5.080;2022-11-20T18:24:51;7.56;96.30
66343;DHT22;53144;51.524;5.080;2022-11-20T18:27:19;7.50;96.89
66343;DHT22;53144;51.524;5.080;2022-11-20T18:29:46;7.49;96.66
66343;DHT22;53144;51.524;5.080;2022-11-20T18:32:19;7.46;97.00
66343;DHT22;53144;51.524;5.080;2022-11-20T18:34:47;7.48;96.87
66343;DHT22;53144;51.524;5.080;2022-11-20T18:37:13;7.38;97.23
66343;DHT22;53144;51.524;5.080;2022-11-20T18:39:40;7.38;97.13
66343;DHT22;53144;51.524;5.080;2022-11-20T18:42:08;7.33;97.16
66343;DHT22;53144;51.524;5.080;2022-11-20T18:44:52;7.35;97.08
66343;DHT22;53144;51.524;5.080;2022-11-20T18:47:23;7.31;97.20
66343;DHT22;53144;51.524;5.080;2022-11-20T18:49:50;7.23;97.16
66343;DHT22;53144;51.524;5.080;2022-11-20T18:52:31;7.25;97.23
66343;DHT22;53144;51.524;5.080;2022-11-20T18:54:58;7.25;96.70
66343;DHT22;53144;51.524;5.080;2022-11-20T18:57:28;7.19;97.16
66343;DHT22;53144;51.524;5.080;2022-11-20T18:59:57;7.18;97.41
66343;DHT22;53144;51.524;5.080;2022-11-20T19:02:26;7.15;97.29
66343;DHT22;53144;51.524;5.080;2022-11-20T19:04:53;7.16;97.47
66343;DHT22;53144;51.524;5.080;2022-11-20T19:07:18;7.21;96.88
66343;DHT22;53144;51.524;5.080;2022-11-20T19:09:47;7.18;97.37
66343;DHT22;53144;51.524;5.080;2022-11-20T19:12:13;7.22;96.77
66343;DHT22;53144;51.524;5.080;2022-11-20T19:14:39;7.19;96.69
66343;DHT22;53144;51.524;5.080;2022-11-20T19:17:05;7.18;96.79
66343;DHT22;53144;51.524;5.080;2022-11-20T19:19:32;7.12;97.34
66343;DHT22;53144;51.524;5.080;2022-11-20T19:21:58;7.05;97.59
66343;DHT22;53144;51.524;5.080;2022-11-20T19:24:23;7.11;97.62
66343;DHT22;53144;51.524;5.080;2022-11-20T19:26:49;7.14;97.51
66343;DHT22;53144;51.524;5.080;2022-11-20T19:29:15;7.07;97.78
66343;DHT22;53144;51.524;5.080;2022-11-20T19:31:46;7.05;97.94
66343;DHT22;53144;51.524;5.080;2022-11-20T19:34:19;7.04;98.11
66343;DHT22;53144;51.524;5.080;2022-11-20T19:36:45;7.08;98.01
66343;DHT22;53144;51.524;5.080;2022-11-20T19:39:11;7.08;98.20
66343;DHT22;53144;51.524;5.080;2022-11-20T19:41:37;7.07;98.27
66343;DHT22;53144;51.524;5.080;2022-11-20T19:44:06;7.08;98.44
66343;DHT22;53144;51.524;5.080;2022-11-20T19:46:33;7.04;98.48
66343;DHT22;53144;51.524;5.080;2022-11-20T19:48:59;7.00;98.58
66343;DHT22;53144;51.524;5.080;2022-11-20T19:51:27;7.02;98.46
66343;DHT22;53144;51.524;5.080;2022-11-20T19:53:55;7.00;98.29
66343;DHT22;53144;51.524;5.080;2022-11-20T19:56:21;7.05;98.31
66343;DHT22;53144;51.524;5.080;2022-11-20T19:58:46;7.08;97.86
66343;DHT22;53144;51.524;5.080;2022-11-20T20:01:23;7.09;97.59
66343;DHT22;53144;51.524;5.080;2022-11-20T20:03:49;7.12;97.67
66343;DHT22;53144;51.524;5.080;2022-11-20T20:06:20;7.11;97.69
66343;DHT22;53144;51.524;5.080;2022-11-20T20:08:52;7.15;97.61
66343;DHT22;53144;51.524;5.080;2022-11-20T20:11:22;7.07;97.84
66343;DHT22;53144;51.524;5.080;2022-11-20T20:13:48;7.00;98.02
66343;DHT22;53144;51.524;5.080;2022-11-20T20:16:16;6.92;98.22
66343;DHT22;53144;51.524;5.080;2022-11-20T20:18:43;6.87;98.42
66343;DHT22;53144;51.524;5.080;2022-11-20T20:21:10;6.81;98.36
66343;DHT22;53144;51.524;5.080;2022-11-20T20:23:36;6.81;98.39
66343;DHT22;53144;51.524;5.080;2022-11-20T20:26:03;6.73;98.76
66343;DHT22;53144;51.524;5.080;2022-11-20T20:28:32;6.67;98.92
66343;DHT22;53144;51.524;5.080;2022-11-20T20:31:08;6.70;98.82
66343;DHT22;53144;51.524;5.080;2022-11-20T20:33:38;6.69;98.80
66343;DHT22;53144;51.524;5.080;2022-11-20T20:36:05;6.66;98.92
66343;DHT22;53144;51.524;5.080;2022-11-20T20:38:31;6.70;98.97
66343;DHT22;53144;51.524;5.080;2022-11-20T20:40:57;6.73;98.97
66343;DHT22;53144;51.524;5.080;2022-11-20T20:43:23;6.81;98.79
66343;DHT22;53144;51.524;5.080;2022-11-20T20:45:49;6.76;97.95
66343;DHT22;53144;51.524;5.080;2022-11-20T20:48:16;6.77;97.79
66343;DHT22;53144;51.524;5.080;2022-11-20T20:51:00;6.84;97.04
66343;DHT22;53144;51.524;5.080;2022-11-20T20:53:29;6.88;96.62
66343;DHT22;53144;51.524;5.080;2022-11-20T20:56:02;6.94;96.52
66343;DHT22;53144;51.524;5.080;2022-11-20T20:58:28;6.95;96.24
66343;DHT22;53144;51.524;5.080;2022-11-20T21:01:02;7.01;96.09
66343;DHT22;53144;51.524;5.080;2022-11-20T21:03:28;7.07;96.21
66343;DHT22;53144;51.524;5.080;2022-11-20T21:05:56;7.16;94.15
66343;DHT22;53144;51.524;5.080;2022-11-20T21:08:25;7.32;93.86
66343;DHT22;53144;51.524;5.080;2022-11-20T21:10:54;7.35;93.19
66343;DHT22;53144;51.524;5.080;2022-11-20T21:13:21;7.22;94.16
66343;DHT22;53144;51.524;5.080;2022-11-20T21:15:50;7.02;95.32
66343;DHT22;53144;51.524;5.080;2022-11-20T21:18:20;6.88;95.75
66343;DHT22;53144;51.524;5.080;2022-11-20T21:20:49;6.77;96.38
66343;DHT22;53144;51.524;5.080;2022-11-20T21:23:34;6.74;96.63
66343;DHT22;53144;51.524;5.080;2022-11-20T21:26:01;6.71;96.92
66343;DHT22;53144;51.524;5.080;2022-11-20T21:28:29;6.66;96.83
66343;DHT22;53144;51.524;5.080;2022-11-20T21:31:07;6.60;96.85
66343;DHT22;53144;51.524;5.080;2022-11-20T21:33:40;6.56;96.80
66343;DHT22;53144;51.524;5.080;2022-11-20T21:36:09;6.52;96.97
66343;DHT22;53144;51.524;5.080;2022-11-20T21:38:35;6.57;97.22
66343;DHT22;53144;51.524;5.080;2022-11-20T21:41:02;6.69;95.83
66343;DHT22;53144;51.524;5.080;2022-11-20T21:43:28;6.70;96.05
66343;DHT22;53144;51.524;5.080;2022-11-20T21:45:59;6.74;95.54
66343;DHT22;53144;51.524;5.080;2022-11-20T21:48:29;6.79;95.11
66343;DHT22;53144;51.524;5.080;2022-11-20T21:51:00;6.76;95.30
66343;DHT22;53144;51.524;5.080;2022-11-20T21:53:28;6.73;95.42
66343;DHT22;53144;51.524;5.080;2022-11-20T21:55:54;6.63;95.72
66343;DHT22;53144;51.524;5.080;2022-11-20T21:58:19;6.64;95.29
66343;DHT22;53144;51.524;5.080;2022-11-20T22:00:44;6.57;95.63
66343;DHT22;53144;51.524;5.080;2022-11-20T22:03:13;6.50;95.88
66343;DHT22;53144;51.524;5.080;2022-11-20T22:05:42;6.49;96.08
66343;DHT22;53144;51.524;5.080;2022-11-20T22:08:07;6.49;96.09
66343;DHT22;53144;51.524;5.080;2022-11-20T22:10:33;6.66;95.43
66343;DHT22;53144;51.524;5.080;2022-11-20T22:12:58;6.60;95.94
66343;DHT22;53144;51.524;5.080;2022-11-20T22:15:43;6.60;95.98